Time;durP1;ratioP1;P1;durP2;ratioP2;P2;SDS_P1;SDS_P2;PMS_P1;PMS_P2;Temp;Humidity;BMP_temperature;BMP_pressure;BME280_temperature;BME280_humidity;BME280_pressure;Samples;Min_cycle;Max_cycle;Signal;HPM_P1;HPM_P2
2021/11/18 00:01:52;;;;;;;0.10;0.10;;;;;;;;;;5981370;24;20027;-92
2021/11/18 00:04:19;;;;;;;0.10;0.10;;;;;;;;;;6004818;23;20349;-92
2021/11/18 00:06:48;;;;;;;0.10;0.10;;;;;;;;;;5980980;24;20068;-91
2021/11/18 00:09:14;;;;;;;0.10;0.10;;;;;;;;;;6004334;23;20013;-91
2021/11/18 00:11:40;;;;;;;0.10;0.10;;;;;;;;;;6004191;23;20122;-92
2021/11/18 00:14:07;;;;;;;0.10;0.10;;;;;;;;;;6004665;23;20111;-92
2021/11/18 00:16:33;;;;;;;0.10;0.10;;;;;;;;;;6004243;23;20319;-91
2021/11/18 00:18:59;;;;;;;0.10;0.10;;;;;;;;;;5980943;24;20027;-91
2021/11/18 00:21:26;;;;;;;0.10;0.10;;;;;;;;;;5980909;24;20084;-91
2021/11/18 00:23:53;;;;;;;0.10;0.10;;;;;;;;;;6004379;23;20020;-91
2021/11/18 00:26:19;;;;;;;0.10;0.10;;;;;;;;;;6004299;23;20016;-92
2021/11/18 00:28:45;;;;;;;0.05;0.05;;;;;;;;;;5980974;24;20023;-92
2021/11/18 00:31:15;;;;;;;0.10;0.10;;;;;;;;;;6004413;23;20347;-92
2021/11/18 00:33:41;;;;;;;0.10;0.10;;;;;;;;;;5980919;24;20012;-92
2021/11/18 00:36:07;;;;;;;0.10;0.10;;;;;;;;;;5980823;24;20442;-91
2021/11/18 00:38:34;;;;;;;0.10;0.10;;;;;;;;;;6003957;23;20019;-90
2021/11/18 00:40:59;;;;;;;0.10;0.10;;;;;;;;;;5980374;24;20044;-90
2021/11/18 00:43:25;;;;;;;0.00;0.00;;;;;;;;;;5980167;24;20053;-91
2021/11/18 00:45:52;;;;;;;0.10;0.10;;;;;;;;;;6003920;23;20020;-91
2021/11/18 00:48:17;;;;;;;0.10;0.10;;;;;;;;;;6004263;23;20016;-91
2021/11/18 00:50:51;;;;;;;0.08;0.08;;;;;;;;;;5980465;24;20022;-91
2021/11/18 00:53:17;;;;;;;0.95;0.47;;;;;;;;;;6003832;23;20016;-91
2021/11/18 00:55:43;;;;;;;0.10;0.10;;;;;;;;;;6003960;23;20057;-92
2021/11/18 00:58:10;;;;;;;0.10;0.10;;;;;;;;;;6004077;23;20070;-91
2021/11/18 01:00:37;;;;;;;0.00;0.00;;;;;;;;;;6004426;23;20016;-92
2021/11/18 01:03:03;;;;;;;0.10;0.10;;;;;;;;;;5980905;24;20083;-93
2021/11/18 01:05:30;;;;;;;0.08;0.08;;;;;;;;;;6004293;23;20021;-92
2021/11/18 01:07:57;;;;;;;0.10;0.10;;;;;;;;;;6003397;23;20020;-92
2021/11/18 01:10:23;;;;;;;0.10;0.10;;;;;;;;;;6004129;23;20473;-91
2021/11/18 01:12:49;;;;;;;0.10;0.10;;;;;;;;;;5980700;24;20031;-92
2021/11/18 01:15:16;;;;;;;0.00;0.00;;;;;;;;;;6003913;23;20020;-92
2021/11/18 01:17:43;;;;;;;0.10;0.10;;;;;;;;;;5981025;24;20023;-92
2021/11/18 01:20:09;;;;;;;0.10;0.10;;;;;;;;;;6004008;23;20085;-93
2021/11/18 01:22:35;;;;;;;0.10;0.10;;;;;;;;;;6004231;23;20352;-92
2021/11/18 01:25:03;;;;;;;0.10;0.10;;;;;;;;;;6004417;23;20039;-93
2021/11/18 01:27:29;;;;;;;0.10;0.10;;;;;;;;;;5980896;24;20019;-93
2021/11/18 01:29:55;;;;;;;0.10;0.10;;;;;;;;;;6004627;23;20027;-93
2021/11/18 01:32:21;;;;;;;0.05;0.05;;;;;;;;;;6004394;23;20024;-92
2021/11/18 01:34:48;;;;;;;0.10;0.10;;;;;;;;;;6004247;23;20020;-93
2021/11/18 01:37:14;;;;;;;0.10;0.10;;;;;;;;;;5980680;24;20012;-92
2021/11/18 01:39:40;;;;;;;0.10;0.10;;;;;;;;;;5981351;24;20023;-92
2021/11/18 01:42:06;;;;;;;0.22;0.22;;;;;;;;;;5980372;24;20023;-92
2021/11/18 01:44:37;;;;;;;0.10;0.10;;;;;;;;;;6004170;23;20358;-93
2021/11/18 01:47:04;;;;;;;0.10;0.10;;;;;;;;;;5980919;24;20622;-93
2021/11/18 01:49:30;;;;;;;0.10;0.10;;;;;;;;;;5980455;24;20016;-92
2021/11/18 01:51:57;;;;;;;0.10;0.10;;;;;;;;;;5980481;24;20339;-92
2021/11/18 01:54:25;;;;;;;0.10;0.10;;;;;;;;;;6004774;23;20095;-91
2021/11/18 01:56:51;;;;;;;0.10;0.10;;;;;;;;;;5981996;24;20023;-91
2021/11/18 01:59:25;;;;;;;0.10;0.10;;;;;;;;;;5982331;24;20016;-91
2021/11/18 02:01:51;;;;;;;0.10;0.10;;;;;;;;;;5981812;24;20012;-91
2021/11/18 02:04:18;;;;;;;0.10;0.10;;;;;;;;;;6005347;23;20380;-92
2021/11/18 02:06:46;;;;;;;0.10;0.10;;;;;;;;;;5981827;24;20016;-91
2021/11/18 02:09:13;;;;;;;0.10;0.10;;;;;;;;;;5982081;24;20191;-91
2021/11/18 02:11:40;;;;;;;0.00;0.00;;;;;;;;;;5981838;24;20020;-91
2021/11/18 02:14:07;;;;;;;0.10;0.10;;;;;;;;;;6005516;23;20019;-92
2021/11/18 02:16:33;;;;;;;0.10;0.10;;;;;;;;;;6005345;23;20027;-91
2021/11/18 02:18:59;;;;;;;0.10;0.10;;;;;;;;;;6005496;23;20023;-91
2021/11/18 02:21:25;;;;;;;0.10;0.10;;;;;;;;;;5981976;24;20013;-91
2021/11/18 02:23:52;;;;;;;0.10;0.10;;;;;;;;;;6005419;23;20099;-91
2021/11/18 02:26:19;;;;;;;0.10;0.10;;;;;;;;;;6005613;23;20020;-92
2021/11/18 02:28:46;;;;;;;0.10;0.10;;;;;;;;;;5982420;24;20051;-92
2021/11/18 02:31:21;;;;;;;0.10;0.10;;;;;;;;;;5982539;24;20012;-92
2021/11/18 02:33:47;;;;;;;0.10;0.10;;;;;;;;;;6005906;23;20068;-92
2021/11/18 02:36:13;;;;;;;1.08;0.35;;;;;;;;;;6005347;23;20019;-92
2021/11/18 02:38:39;;;;;;;0.10;0.10;;;;;;;;;;5981865;24;20023;-93
2021/11/18 02:41:05;;;;;;;0.10;0.10;;;;;;;;;;6005795;23;20016;-90
2021/11/18 02:43:31;;;;;;;0.10;0.10;;;;;;;;;;6004587;23;20328;-90
2021/11/18 02:45:57;;;;;;;0.00;0.00;;;;;;;;;;5981449;24;20031;-92
2021/11/18 02:48:23;;;;;;;0.10;0.10;;;;;;;;;;6005423;23;20095;-91
2021/11/18 02:50:54;;;;;;;0.10;0.10;;;;;;;;;;6005703;23;20072;-90
2021/11/18 02:53:20;;;;;;;0.10;0.10;;;;;;;;;;6005082;23;20095;-92
2021/11/18 02:55:48;;;;;;;0.10;0.10;;;;;;;;;;5982200;24;20385;-91
2021/11/18 02:58:14;;;;;;;0.10;0.10;;;;;;;;;;5982082;24;20058;-92
2021/11/18 03:00:44;;;;;;;0.10;0.10;;;;;;;;;;5981795;24;20020;-92
2021/11/18 03:03:10;;;;;;;0.10;0.10;;;;;;;;;;6005305;23;20073;-91
2021/11/18 03:05:36;;;;;;;0.10;0.10;;;;;;;;;;6004599;23;20373;-92
2021/11/18 03:08:02;;;;;;;0.10;0.10;;;;;;;;;;6005051;23;20020;-92
2021/11/18 03:10:28;;;;;;;0.10;0.10;;;;;;;;;;6005407;23;20106;-92
2021/11/18 03:12:54;;;;;;;0.10;0.10;;;;;;;;;;5982124;24;20031;-92
2021/11/18 03:15:20;;;;;;;0.10;0.10;;;;;;;;;;5981590;24;20017;-92
2021/11/18 03:17:47;;;;;;;0.10;0.10;;;;;;;;;;5981608;24;20346;-93
2021/11/18 03:20:14;;;;;;;0.10;0.10;;;;;;;;;;6005467;23;20023;-93
2021/11/18 03:22:40;;;;;;;0.10;0.10;;;;;;;;;;6005330;23;20039;-93
2021/11/18 03:25:06;;;;;;;0.10;0.10;;;;;;;;;;5981837;24;20027;-93
2021/11/18 03:27:32;;;;;;;0.10;0.10;;;;;;;;;;6005065;23;20020;-92
2021/11/18 03:29:58;;;;;;;0.10;0.10;;;;;;;;;;6004809;23;20027;-92
2021/11/18 03:32:24;;;;;;;0.00;0.00;;;;;;;;;;6004933;23;20347;-92
2021/11/18 03:34:50;;;;;;;0.10;0.10;;;;;;;;;;6005162;23;20051;-92
2021/11/18 03:37:16;;;;;;;0.10;0.10;;;;;;;;;;6004822;23;20071;-91
2021/11/18 03:39:42;;;;;;;0.10;0.10;;;;;;;;;;5981303;24;20016;-91
2021/11/18 03:42:09;;;;;;;0.10;0.10;;;;;;;;;;5980936;24;20023;-90
2021/11/18 03:44:35;;;;;;;0.10;0.10;;;;;;;;;;6004556;23;20020;-91
2021/11/18 03:47:03;;;;;;;0.00;0.00;;;;;;;;;;5981050;24;20016;-91
2021/11/18 03:49:29;;;;;;;0.00;0.00;;;;;;;;;;6004536;23;20047;-91
2021/11/18 03:51:55;;;;;;;0.10;0.10;;;;;;;;;;5981188;24;20447;-91
2021/11/18 03:54:22;;;;;;;0.10;0.10;;;;;;;;;;5981427;24;20046;-91
2021/11/18 03:56:48;;;;;;;0.10;0.10;;;;;;;;;;6004416;23;20056;-90
2021/11/18 03:59:16;;;;;;;0.10;0.10;;;;;;;;;;5981080;24;20417;-91
2021/11/18 04:01:42;;;;;;;0.10;0.10;;;;;;;;;;6004712;23;20023;-91
2021/11/18 04:04:09;;;;;;;0.20;0.20;;;;;;;;;;5981287;24;20016;-90
2021/11/18 04:06:35;;;;;;;0.10;0.10;;;;;;;;;;6004265;23;20020;-91
2021/11/18 04:09:01;;;;;;;0.10;0.10;;;;;;;;;;6004286;23;20016;-91
2021/11/18 04:11:27;;;;;;;0.10;0.10;;;;;;;;;;6004626;23;20027;-92
2021/11/18 04:13:53;;;;;;;0.10;0.10;;;;;;;;;;6004627;23;20023;-91
2021/11/18 04:16:19;;;;;;;0.10;0.10;;;;;;;;;;6004137;23;20064;-91
2021/11/18 04:18:45;;;;;;;0.10;0.10;;;;;;;;;;6004640;23;20513;-92
2021/11/18 04:21:11;;;;;;;0.10;0.10;;;;;;;;;;5981322;24;20023;-92
2021/11/18 04:23:37;;;;;;;0.10;0.10;;;;;;;;;;5981167;24;20016;-91
2021/11/18 04:26:04;;;;;;;0.10;0.10;;;;;;;;;;6004458;23;20016;-90
2021/11/18 04:28:30;;;;;;;0.10;0.10;;;;;;;;;;6004225;23;20024;-91
2021/11/18 04:30:58;;;;;;;0.10;0.10;;;;;;;;;;6004942;23;20357;-91
2021/11/18 04:33:24;;;;;;;0.10;0.10;;;;;;;;;;5980822;24;20016;-90
2021/11/18 04:35:50;;;;;;;0.10;0.10;;;;;;;;;;6004329;23;20020;-91
2021/11/18 04:38:17;;;;;;;0.10;0.10;;;;;;;;;;6004757;23;20017;-91
2021/11/18 04:40:43;;;;;;;0.10;0.10;;;;;;;;;;6004162;23;20450;-91
2021/11/18 04:43:09;;;;;;;0.10;0.10;;;;;;;;;;5980632;24;20024;-91
2021/11/18 04:45:35;;;;;;;0.10;0.10;;;;;;;;;;5981143;24;20016;-91
2021/11/18 04:48:01;;;;;;;0.10;0.10;;;;;;;;;;6003949;23;20095;-91
2021/11/18 04:50:27;;;;;;;0.10;0.10;;;;;;;;;;5980748;24;20391;-91
2021/11/18 04:52:53;;;;;;;0.10;0.10;;;;;;;;;;6004559;23;20099;-92
2021/11/18 04:55:20;;;;;;;0.10;0.10;;;;;;;;;;5981148;24;20099;-92
2021/11/18 04:57:46;;;;;;;0.10;0.10;;;;;;;;;;6004780;23;20436;-91
2021/11/18 05:00:18;;;;;;;0.10;0.10;;;;;;;;;;6004365;23;20016;-92
2021/11/18 05:02:44;;;;;;;0.10;0.10;;;;;;;;;;6004163;23;20012;-91
2021/11/18 05:05:10;;;;;;;0.10;0.10;;;;;;;;;;5981136;24;20028;-91
2021/11/18 05:07:36;;;;;;;0.10;0.10;;;;;;;;;;6003921;23;20024;-91
2021/11/18 05:10:02;;;;;;;0.10;0.10;;;;;;;;;;5980825;24;20020;-91
2021/11/18 05:12:28;;;;;;;0.10;0.10;;;;;;;;;;6004074;23;20028;-91
2021/11/18 05:14:54;;;;;;;0.00;0.00;;;;;;;;;;6004128;23;20043;-91
2021/11/18 05:17:20;;;;;;;0.10;0.10;;;;;;;;;;6004165;23;20056;-91
2021/11/18 05:19:46;;;;;;;0.10;0.10;;;;;;;;;;5980699;24;20442;-91
2021/11/18 05:22:12;;;;;;;0.10;0.10;;;;;;;;;;6003944;23;20017;-91
2021/11/18 05:24:38;;;;;;;0.10;0.10;;;;;;;;;;6004036;23;20103;-91
2021/11/18 05:27:04;;;;;;;0.10;0.10;;;;;;;;;;6003506;23;20020;-90
2021/11/18 05:29:30;;;;;;;0.10;0.10;;;;;;;;;;5981505;24;20051;-90
2021/11/18 05:31:56;;;;;;;0.10;0.10;;;;;;;;;;6005368;23;20478;-91
2021/11/18 05:34:22;;;;;;;0.10;0.10;;;;;;;;;;5981996;24;20092;-91
2021/11/18 05:36:48;;;;;;;0.10;0.10;;;;;;;;;;5982349;24;20023;-90
2021/11/18 05:39:14;;;;;;;0.10;0.10;;;;;;;;;;6005587;23;20035;-90
2021/11/18 05:41:40;;;;;;;0.10;0.10;;;;;;;;;;6005587;23;20095;-90
2021/11/18 05:44:06;;;;;;;0.10;0.10;;;;;;;;;;6005193;23;20474;-90
2021/11/18 05:46:33;;;;;;;0.10;0.10;;;;;;;;;;5981709;24;20023;-90
2021/11/18 05:48:59;;;;;;;0.10;0.10;;;;;;;;;;5981741;24;20323;-91
2021/11/18 05:51:25;;;;;;;0.10;0.10;;;;;;;;;;6005094;23;20431;-91
2021/11/18 05:53:51;;;;;;;0.10;0.10;;;;;;;;;;6005881;23;20100;-90
2021/11/18 05:56:18;;;;;;;0.10;0.10;;;;;;;;;;5982255;24;20077;-91
2021/11/18 05:58:44;;;;;;;0.17;0.17;;;;;;;;;;5981724;24;20453;-91
2021/11/18 06:01:10;;;;;;;0.10;0.10;;;;;;;;;;5981835;24;20056;-91
2021/11/18 06:03:36;;;;;;;0.10;0.10;;;;;;;;;;6005039;23;20016;-90
2021/11/18 06:06:02;;;;;;;0.10;0.10;;;;;;;;;;5981958;24;20027;-92
2021/11/18 06:08:28;;;;;;;0.10;0.10;;;;;;;;;;6005329;23;20458;-91
2021/11/18 06:10:54;;;;;;;0.10;0.10;;;;;;;;;;5982125;24;20099;-92
2021/11/18 06:13:21;;;;;;;0.10;0.10;;;;;;;;;;6005912;23;20020;-92
2021/11/18 06:15:47;;;;;;;0.10;0.10;;;;;;;;;;6005478;23;20020;-91
2021/11/18 06:18:13;;;;;;;0.10;0.10;;;;;;;;;;5981747;24;20016;-88
2021/11/18 06:20:39;;;;;;;0.00;0.00;;;;;;;;;;5981474;24;20039;-95
2021/11/18 06:23:08;;;;;;;0.10;0.10;;;;;;;;;;6006655;23;20019;-93
2021/11/18 06:25:35;;;;;;;0.10;0.10;;;;;;;;;;5981499;24;20450;-87
2021/11/18 06:28:01;;;;;;;0.10;0.10;;;;;;;;;;5980991;24;20068;-90
2021/11/18 06:30:29;;;;;;;0.10;0.10;;;;;;;;;;5981543;24;20020;-90
2021/11/18 06:32:55;;;;;;;0.10;0.10;;;;;;;;;;6004765;23;20016;-88
2021/11/18 06:35:21;;;;;;;0.10;0.10;;;;;;;;;;5981109;24;20023;-88
2021/11/18 06:37:48;;;;;;;0.10;0.10;;;;;;;;;;5980970;24;20072;-87
2021/11/18 06:40:14;;;;;;;0.10;0.10;;;;;;;;;;5980766;24;20016;-88
2021/11/18 06:42:41;;;;;;;0.10;0.10;;;;;;;;;;5980803;24;20392;-87
2021/11/18 06:45:08;;;;;;;0.10;0.10;;;;;;;;;;5981079;24;20063;-88
2021/11/18 06:47:34;;;;;;;0.57;0.57;;;;;;;;;;5980757;24;20123;-88
2021/11/18 06:50:00;;;;;;;0.10;0.10;;;;;;;;;;5981092;24;20126;-89
2021/11/18 06:52:26;;;;;;;0.80;0.28;;;;;;;;;;5980961;24;20530;-88
2021/11/18 06:54:52;;;;;;;0.10;0.10;;;;;;;;;;5980863;24;20048;-89
2021/11/18 06:57:18;;;;;;;0.10;0.10;;;;;;;;;;5980565;24;20291;-87
2021/11/18 06:59:44;;;;;;;0.10;0.10;;;;;;;;;;5981348;24;20031;-86
2021/11/18 07:02:10;;;;;;;0.10;0.10;;;;;;;;;;6004191;23;20016;-89
2021/11/18 07:04:36;;;;;;;0.20;0.20;;;;;;;;;;6004455;23;20016;-90
2021/11/18 07:07:02;;;;;;;0.10;0.10;;;;;;;;;;5980765;24;20024;-89
2021/11/18 07:09:29;;;;;;;0.10;0.10;;;;;;;;;;5980767;24;20103;-87
2021/11/18 07:11:55;;;;;;;0.10;0.10;;;;;;;;;;6004401;23;20012;-87
2021/11/18 07:14:21;;;;;;;0.10;0.10;;;;;;;;;;5980888;24;20068;-89
2021/11/18 07:16:47;;;;;;;0.10;0.10;;;;;;;;;;5980517;24;20287;-89
2021/11/18 07:19:13;;;;;;;0.10;0.10;;;;;;;;;;6004231;23;20019;-88
2021/11/18 07:21:39;;;;;;;0.10;0.10;;;;;;;;;;5980544;24;20115;-88
2021/11/18 07:24:05;;;;;;;0.10;0.10;;;;;;;;;;6004243;23;20016;-88
2021/11/18 07:26:32;;;;;;;0.00;0.00;;;;;;;;;;5980538;24;20016;-88
2021/11/18 07:28:58;;;;;;;0.10;0.10;;;;;;;;;;5981097;24;20019;-88
2021/11/18 07:31:24;;;;;;;0.10;0.10;;;;;;;;;;5980722;24;20017;-89
2021/11/18 07:33:50;;;;;;;0.10;0.10;;;;;;;;;;5980741;24;20151;-90
2021/11/18 07:36:16;;;;;;;0.10;0.10;;;;;;;;;;6004134;23;20024;-90
2021/11/18 07:38:42;;;;;;;0.10;0.10;;;;;;;;;;5981226;24;20020;-90
2021/11/18 07:41:08;;;;;;;0.10;0.10;;;;;;;;;;5980487;24;20454;-90
2021/11/18 07:43:35;;;;;;;0.10;0.10;;;;;;;;;;5980291;24;20016;-87
2021/11/18 07:46:02;;;;;;;0.10;0.10;;;;;;;;;;5980131;24;20020;-87
2021/11/18 07:48:28;;;;;;;0.10;0.10;;;;;;;;;;5980239;24;20020;-87
2021/11/18 07:50:54;;;;;;;0.10;0.10;;;;;;;;;;6003507;23;20020;-88
2021/11/18 07:53:20;;;;;;;0.10;0.10;;;;;;;;;;5980194;24;20020;-89
2021/11/18 07:55:47;;;;;;;0.10;0.10;;;;;;;;;;5980112;24;20354;-89
2021/11/18 07:58:13;;;;;;;0.10;0.10;;;;;;;;;;6003591;23;20016;-89
2021/11/18 08:00:39;;;;;;;0.10;0.10;;;;;;;;;;6003738;23;20102;-89
2021/11/18 08:03:09;;;;;;;0.10;0.10;;;;;;;;;;6004022;23;20166;-90
2021/11/18 08:05:35;;;;;;;0.10;0.10;;;;;;;;;;5980618;24;20016;-89
2021/11/18 08:08:01;;;;;;;0.57;0.57;;;;;;;;;;6003647;23;20024;-89
2021/11/18 08:10:28;;;;;;;0.10;0.10;;;;;;;;;;6003866;23;20016;-89
2021/11/18 08:12:54;;;;;;;0.10;0.10;;;;;;;;;;6003911;23;20032;-89
2021/11/18 08:15:20;;;;;;;0.00;0.00;;;;;;;;;;5980142;24;20024;-89
2021/11/18 08:17:46;;;;;;;0.10;0.10;;;;;;;;;;5980107;24;20023;-89
2021/11/18 08:20:13;;;;;;;0.10;0.10;;;;;;;;;;5980567;24;20180;-88
2021/11/18 08:22:39;;;;;;;0.10;0.10;;;;;;;;;;5980197;24;20020;-89
2021/11/18 08:25:05;;;;;;;0.15;0.10;;;;;;;;;;6003641;23;20091;-89
2021/11/18 08:27:32;;;;;;;0.10;0.10;;;;;;;;;;6001790;23;20016;-89
2021/11/18 08:29:58;;;;;;;0.10;0.10;;;;;;;;;;5980763;24;20023;-89
2021/11/18 08:32:24;;;;;;;0.10;0.10;;;;;;;;;;5980596;24;20020;-89
2021/11/18 08:34:50;;;;;;;0.10;0.10;;;;;;;;;;5979918;24;20023;-89
2021/11/18 08:37:16;;;;;;;0.10;0.10;;;;;;;;;;6003709;23;20372;-89
2021/11/18 08:39:42;;;;;;;0.10;0.10;;;;;;;;;;5980028;24;20279;-90
2021/11/18 08:42:09;;;;;;;0.10;0.10;;;;;;;;;;6003119;23;20056;-90
2021/11/18 08:44:35;;;;;;;0.10;0.10;;;;;;;;;;6003433;23;20056;-89
2021/11/18 08:47:02;;;;;;;0.10;0.10;;;;;;;;;;6003165;23;20013;-90
2021/11/18 08:49:28;;;;;;;0.10;0.10;;;;;;;;;;6003594;23;20016;-90
2021/11/18 08:51:54;;;;;;;0.10;0.10;;;;;;;;;;5980202;24;20012;-89
2021/11/18 08:54:21;;;;;;;0.10;0.10;;;;;;;;;;5980400;24;20017;-89
2021/11/18 08:56:51;;;;;;;0.10;0.10;;;;;;;;;;6003217;23;20020;-89
2021/11/18 08:59:17;;;;;;;0.10;0.10;;;;;;;;;;6003498;23;20091;-89
2021/11/18 09:01:45;;;;;;;0.10;0.10;;;;;;;;;;6003440;23;20435;-89
2021/11/18 09:04:15;;;;;;;0.10;0.10;;;;;;;;;;5982337;24;20016;-89
2021/11/18 09:06:41;;;;;;;0.10;0.10;;;;;;;;;;6004926;23;20017;-94
2021/11/18 09:09:08;;;;;;;0.10;0.10;;;;;;;;;;6006792;23;20279;-90
2021/11/18 09:11:34;;;;;;;0.10;0.10;;;;;;;;;;6008216;23;20051;-89
2021/11/18 09:14:01;;;;;;;0.10;0.10;;;;;;;;;;5987278;24;20020;-89
2021/11/18 09:16:27;;;;;;;0.00;0.00;;;;;;;;;;6023686;23;20024;-89
2021/11/18 09:18:53;;;;;;;0.10;0.10;;;;;;;;;;6027907;23;20016;-90
2021/11/18 09:21:20;;;;;;;0.10;0.10;;;;;;;;;;5989002;24;20066;-89
2021/11/18 09:23:48;;;;;;;0.10;0.10;;;;;;;;;;6005901;23;20017;-91
2021/11/18 09:26:14;;;;;;;0.10;0.10;;;;;;;;;;5982047;24;20016;-88
2021/11/18 09:28:40;;;;;;;0.10;0.10;;;;;;;;;;5981701;24;20269;-89
2021/11/18 09:31:06;;;;;;;0.10;0.10;;;;;;;;;;5981720;24;20012;-89
2021/11/18 09:33:34;;;;;;;0.10;0.10;;;;;;;;;;5981727;24;20043;-89
2021/11/18 09:36:01;;;;;;;0.10;0.10;;;;;;;;;;5982281;24;20047;-89
2021/11/18 09:38:27;;;;;;;0.10;0.10;;;;;;;;;;6005057;23;20095;-89
2021/11/18 09:41:01;;;;;;;0.10;0.10;;;;;;;;;;6005060;23;20176;-89
2021/11/18 09:43:36;;;;;;;0.10;0.10;;;;;;;;;;5981515;24;20016;-89
2021/11/18 09:46:14;;;;;;;0.10;0.10;;;;;;;;;;5981718;24;20031;-88
2021/11/18 09:48:46;;;;;;;0.10;0.10;;;;;;;;;;6004706;23;20438;-89
2021/11/18 09:51:15;;;;;;;0.20;0.20;;;;;;;;;;5981269;24;20049;-88
2021/11/18 09:54:00;;;;;;;0.10;0.10;;;;;;;;;;5981511;24;20076;-89
2021/11/18 09:56:29;;;;;;;0.10;0.10;;;;;;;;;;5981256;24;20016;-89
2021/11/18 09:59:01;;;;;;;0.10;0.10;;;;;;;;;;6004097;23;20502;-89
2021/11/18 10:01:46;;;;;;;0.10;0.10;;;;;;;;;;6002940;23;20019;-89
2021/11/18 10:04:15;;;;;;;0.10;0.10;;;;;;;;;;5981260;24;20016;-90
2021/11/18 10:06:41;;;;;;;0.10;0.10;;;;;;;;;;5981652;24;20016;-91
2021/11/18 10:09:16;;;;;;;0.10;0.10;;;;;;;;;;5980902;24;20538;-90
2021/11/18 10:11:42;;;;;;;0.10;0.10;;;;;;;;;;5981612;24;20016;-90
2021/11/18 10:14:15;;;;;;;0.10;0.10;;;;;;;;;;5980948;24;20027;-90
2021/11/18 10:16:49;;;;;;;0.10;0.10;;;;;;;;;;6004910;23;20024;-90
2021/11/18 10:19:17;;;;;;;0.10;0.10;;;;;;;;;;5981297;24;20067;-89
2021/11/18 10:21:45;;;;;;;0.10;0.10;;;;;;;;;;6005126;23;20016;-89
2021/11/18 10:24:11;;;;;;;0.10;0.10;;;;;;;;;;6005207;23;20073;-90
2021/11/18 10:26:40;;;;;;;0.10;0.10;;;;;;;;;;5981473;24;20103;-90
2021/11/18 10:29:14;;;;;;;0.10;0.10;;;;;;;;;;5981464;24;20052;-90
2021/11/18 10:31:40;;;;;;;0.10;0.10;;;;;;;;;;6005089;23;20478;-90
2021/11/18 10:34:18;;;;;;;0.10;0.10;;;;;;;;;;5980933;24;20047;-89
2021/11/18 10:36:53;;;;;;;0.25;0.25;;;;;;;;;;5981022;24;20443;-90
2021/11/18 10:39:23;;;;;;;0.10;0.10;;;;;;;;;;5981247;24;20016;-89
2021/11/18 10:41:54;;;;;;;0.10;0.10;;;;;;;;;;6004281;23;20137;-89
2021/11/18 10:44:23;;;;;;;0.10;0.10;;;;;;;;;;5981204;24;20052;-90
2021/11/18 10:46:52;;;;;;;0.13;0.13;;;;;;;;;;6004511;23;20099;-91
2021/11/18 10:49:29;;;;;;;0.10;0.10;;;;;;;;;;5981703;24;20024;-89
2021/11/18 10:51:55;;;;;;;0.10;0.10;;;;;;;;;;6004506;23;20021;-89
2021/11/18 10:54:38;;;;;;;0.10;0.10;;;;;;;;;;5981482;24;20418;-92
2021/11/18 10:57:04;;;;;;;0.10;0.10;;;;;;;;;;5981436;24;20095;-88
2021/11/18 10:59:41;;;;;;;0.10;0.10;;;;;;;;;;6004508;23;20016;-90
2021/11/18 11:02:14;;;;;;;0.10;0.10;;;;;;;;;;5982631;24;20491;-90
2021/11/18 11:04:41;;;;;;;0.10;0.10;;;;;;;;;;6004379;23;20016;-89
2021/11/18 11:07:08;;;;;;;0.10;0.10;;;;;;;;;;5981642;24;20023;-91
2021/11/18 11:09:38;;;;;;;0.65;0.20;;;;;;;;;;6012744;23;20016;-91
2021/11/18 11:12:24;;;;;;;0.10;0.10;;;;;;;;;;5984854;24;20091;-88
2021/11/18 11:15:02;;;;;;;0.10;0.10;;;;;;;;;;5980637;24;20076;-91
2021/11/18 11:17:47;;;;;;;0.10;0.10;;;;;;;;;;6004536;23;20020;-90
2021/11/18 11:20:17;;;;;;;0.10;0.10;;;;;;;;;;5980920;24;20012;-91
2021/11/18 11:22:46;;;;;;;0.10;0.10;;;;;;;;;;6004385;23;20091;-90
2021/11/18 11:25:32;;;;;;;0.10;0.10;;;;;;;;;;5980610;24;20020;-89
2021/11/18 11:28:01;;;;;;;0.10;0.10;;;;;;;;;;5980374;24;20275;-88
2021/11/18 11:30:36;;;;;;;0.10;0.10;;;;;;;;;;6004031;23;20016;-88
2021/11/18 11:33:21;;;;;;;0.10;0.10;;;;;;;;;;5980444;24;20020;-88
2021/11/18 11:35:53;;;;;;;0.10;0.10;;;;;;;;;;6003644;23;20020;-88
2021/11/18 11:38:25;;;;;;;0.10;0.10;;;;;;;;;;5980358;24;20450;-88
2021/11/18 11:41:00;;;;;;;0.10;0.10;;;;;;;;;;5980244;24;20027;-88
2021/11/18 11:43:31;;;;;;;0.10;0.10;;;;;;;;;;6003661;23;20043;-88
2021/11/18 11:46:16;;;;;;;0.10;0.10;;;;;;;;;;6003868;23;20343;-88
2021/11/18 11:49:14;;;;;;;0.10;0.10;;;;;;;;;;5980280;24;20023;-89
2021/11/18 11:51:40;;;;;;;0.10;0.10;;;;;;;;;;5980330;24;20095;-88
2021/11/18 11:54:25;;;;;;;0.10;0.10;;;;;;;;;;5980561;24;20459;-88
2021/11/18 11:56:52;;;;;;;0.10;0.10;;;;;;;;;;6003458;23;20017;-89
2021/11/18 11:59:22;;;;;;;0.10;0.10;;;;;;;;;;5980324;24;20027;-88
2021/11/18 12:01:57;;;;;;;0.10;0.10;;;;;;;;;;6004035;23;20027;-90
2021/11/18 12:04:28;;;;;;;0.10;0.10;;;;;;;;;;5980659;24;20055;-90
2021/11/18 12:07:08;;;;;;;0.17;0.17;;;;;;;;;;6004201;23;20016;-90
2021/11/18 12:09:41;;;;;;;0.75;0.75;;;;;;;;;;5980773;24;20020;-90
2021/11/18 12:12:27;;;;;;;0.10;0.10;;;;;;;;;;5980997;24;20023;-92
2021/11/18 12:14:53;;;;;;;0.10;0.10;;;;;;;;;;5981002;24;20063;-92
2021/11/18 12:17:25;;;;;;;0.10;0.10;;;;;;;;;;6004184;23;20027;-89
2021/11/18 12:19:56;;;;;;;0.10;0.10;;;;;;;;;;5982196;24;20013;-90
2021/11/18 12:22:29;;;;;;;0.20;0.20;;;;;;;;;;5980302;24;20019;-90
2021/11/18 12:24:59;;;;;;;0.10;0.10;;;;;;;;;;6003880;23;20016;-90
2021/11/18 12:27:28;;;;;;;0.10;0.10;;;;;;;;;;5980055;24;20024;-87
2021/11/18 12:30:13;;;;;;;0.28;0.28;;;;;;;;;;5980303;24;20020;-87
2021/11/18 12:32:40;;;;;;;0.10;0.10;;;;;;;;;;5979951;24;20016;-88
2021/11/18 12:35:06;;;;;;;0.10;0.10;;;;;;;;;;5979998;24;20391;-87
2021/11/18 12:37:38;;;;;;;0.10;0.10;;;;;;;;;;5979995;24;20439;-90
2021/11/18 12:40:05;;;;;;;;;;;;;;;;;;6004494;23;20121;-90
2021/11/18 12:42:47;;;;;;;0.43;0.25;;;;;;;;;;6003670;23;20329;-90
2021/11/18 12:45:13;;;;;;;0.73;0.73;;;;;;;;;;5980936;24;20131;-90
2021/11/18 12:47:59;;;;;;;0.10;0.10;;;;;;;;;;5980954;24;20368;-89
2021/11/18 12:50:32;;;;;;;0.10;0.10;;;;;;;;;;5980049;24;20016;-90
2021/11/18 12:52:59;;;;;;;;;;;;;;;;;;5980798;24;20020;-90
2021/11/18 12:55:38;;;;;;;0.20;0.20;;;;;;;;;;5980339;24;19929;-90
2021/11/18 12:58:25;;;;;;;0.10;0.10;;;;;;;;;;6003942;23;20062;-90
2021/11/18 13:00:52;;;;;;;0.10;0.10;;;;;;;;;;6003226;23;20096;-89
2021/11/18 13:03:36;;;;;;;0.10;0.10;;;;;;;;;;5980326;24;20126;-90
2021/11/18 13:06:02;;;;;;;0.17;0.17;;;;;;;;;;5980100;24;20553;-89
2021/11/18 13:08:35;;;;;;;0.10;0.10;;;;;;;;;;5980269;24;20454;-90
2021/11/18 13:11:20;;;;;;;0.10;0.10;;;;;;;;;;5980184;24;20042;-90
2021/11/18 13:13:47;;;;;;;0.10;0.10;;;;;;;;;;5980142;24;20080;-90
2021/11/18 13:16:27;;;;;;;0.17;0.17;;;;;;;;;;6003381;23;20016;-90
2021/11/18 13:18:54;;;;;;;0.10;0.10;;;;;;;;;;5980432;24;20339;-90
2021/11/18 13:21:22;;;;;;;0.10;0.10;;;;;;;;;;6003499;23;20064;-90
2021/11/18 13:24:05;;;;;;;0.30;0.30;;;;;;;;;;6003641;23;20013;-90
2021/11/18 13:26:31;;;;;;;0.10;0.10;;;;;;;;;;5980103;24;20095;-90
2021/11/18 13:29:00;;;;;;;0.63;0.63;;;;;;;;;;5979473;24;20050;-90
2021/11/18 13:31:28;;;;;;;0.10;0.10;;;;;;;;;;5980647;24;20350;-89
2021/11/18 13:33:54;;;;;;;0.10;0.10;;;;;;;;;;5980548;24;20375;-90
2021/11/18 13:36:20;;;;;;;0.70;0.35;;;;;;;;;;5979963;24;20023;-89
2021/11/18 13:39:04;;;;;;;0.10;0.10;;;;;;;;;;5980433;24;20013;-90
2021/11/18 13:41:39;;;;;;;0.10;0.10;;;;;;;;;;5980563;24;20016;-90
2021/11/18 13:44:06;;;;;;;0.55;0.25;;;;;;;;;;5980214;24;20048;-89
2021/11/18 13:46:32;;;;;;;0.10;0.10;;;;;;;;;;5980338;24;20403;-90
2021/11/18 13:49:04;;;;;;;0.10;0.10;;;;;;;;;;5983509;24;20043;-90
2021/11/18 13:51:36;;;;;;;0.10;0.10;;;;;;;;;;5988740;24;20016;-90
2021/11/18 13:54:02;;;;;;;0.10;0.10;;;;;;;;;;5992830;24;20019;-89
2021/11/18 13:56:28;;;;;;;0.10;0.10;;;;;;;;;;6008509;23;20067;-90
2021/11/18 13:58:59;;;;;;;0.10;0.10;;;;;;;;;;5998613;23;20027;-90
2021/11/18 14:01:29;;;;;;;0.10;0.10;;;;;;;;;;6005450;23;20016;-90
2021/11/18 14:03:56;;;;;;;0.10;0.10;;;;;;;;;;5981949;24;20013;-90
2021/11/18 14:06:24;;;;;;;0.10;0.10;;;;;;;;;;6005933;23;20044;-91
2021/11/18 14:08:54;;;;;;;0.10;0.10;;;;;;;;;;5981948;24;20502;-90
2021/11/18 14:11:23;;;;;;;0.10;0.10;;;;;;;;;;5981780;24;20039;-90
2021/11/18 14:13:52;;;;;;;0.10;0.10;;;;;;;;;;5982114;24;20072;-89
2021/11/18 14:16:26;;;;;;;0.10;0.10;;;;;;;;;;5981803;24;20335;-91
2021/11/18 14:19:06;;;;;;;0.10;0.10;;;;;;;;;;5981821;24;20017;-89
2021/11/18 14:22:08;;;;;;;0.10;0.10;;;;;;;;;;6005488;23;20043;-89
2021/11/18 14:24:34;;;;;;;0.10;0.10;;;;;;;;;;5985224;23;20016;-90
2021/11/18 14:27:20;;;;;;;0.10;0.10;;;;;;;;;;6005169;23;20019;-91
2021/11/18 14:29:48;;;;;;;0.10;0.10;;;;;;;;;;6004745;23;20450;-89
2021/11/18 14:32:19;;;;;;;0.10;0.10;;;;;;;;;;6005366;23;20048;-93
2021/11/18 14:35:04;;;;;;;0.10;0.10;;;;;;;;;;6005351;23;20024;-91
2021/11/18 14:37:42;;;;;;;0.10;0.10;;;;;;;;;;5981473;24;20020;-91
2021/11/18 14:40:28;;;;;;;0.10;0.10;;;;;;;;;;5981431;24;20351;-90
2021/11/18 14:43:12;;;;;;;0.10;0.10;;;;;;;;;;6003865;23;20459;-90
2021/11/18 14:45:39;;;;;;;0.25;0.25;;;;;;;;;;6004881;23;20028;-90
2021/11/18 14:48:47;;;;;;;0.10;0.10;;;;;;;;;;5981630;24;20350;-90
2021/11/18 14:51:19;;;;;;;0.10;0.10;;;;;;;;;;6004834;23;20016;-90
2021/11/18 14:53:52;;;;;;;0.10;0.10;;;;;;;;;;5981816;24;20021;-90